EGQL/ADX METAR and TAF weather

Enter ICAO airport designator
Station Type Date Time Source
EGQL METAR 2019/06/26 09:50 UTC NOAA

EGQL 260950Z 14005KT 9999 BKN017 BKN024 13/09 Q1032 RMK WHT


Station Type Date Time Source
EGQL Decoded METAR 2019/06/26 09:50 UTC NOAA

Leuchars, United Kingdom (EGQL) 56-23N 002-52W 0M
Jun 26, 2019 - 05:50 AM EDT / 2019.06.26 0950 UTC
Wind: from the SE (140 degrees) at 6 MPH (5 KT):0
Visibility: greater than 7 mile(s):0
Sky conditions: mostly cloudy
Temperature: 55 F (13 C)
Dew Point: 48 F (9 C)
Relative Humidity: 76%
Pressure (altimeter): 30.47 in. Hg (1032 hPa)
ob: EGQL 260950Z 14005KT 9999 BKN017 BKN024 13/09 Q1032 RMK WHT
cycle: 10

Station Type Date Time Source
EGQL TAF 2011/07/27 06:03 UTC NOAA

TAF TAF
AMD EGQL 270424Z 2706/2724 14005KT 9999 BKN020 PROB30
TEMPO 2706/2708 SCT012
BECMG 2708/2710 SCT025

Example: see airport list